createdAt,value
2018-03-29T00:00:01.510Z,20.23
2018-03-29T00:02:30.209Z,21.44
2018-03-29T00:04:58.896Z,20.00
2018-03-29T00:07:27.871Z,18.74
2018-03-29T00:09:56.575Z,18.84
2018-03-29T00:12:25.262Z,18.88
2018-03-29T00:14:53.948Z,17.29
2018-03-29T00:17:22.590Z,19.86
2018-03-29T00:19:51.317Z,17.63
2018-03-29T00:22:20.250Z,17.71
2018-03-29T00:24:49.709Z,16.55
2018-03-29T00:27:18.361Z,16.46
2018-03-29T00:29:47.353Z,16.11
2018-03-29T00:32:16.074Z,16.03
2018-03-29T00:34:44.714Z,15.69
2018-03-29T00:37:13.804Z,15.65
2018-03-29T00:39:43.262Z,14.88
2018-03-29T00:42:11.848Z,14.17
2018-03-29T00:44:40.941Z,13.20
2018-03-29T00:47:09.633Z,12.46
2018-03-29T00:49:38.272Z,16.29
2018-03-29T00:52:07.365Z,17.92
2018-03-29T00:54:36.090Z,18.26
2018-03-29T00:57:04.775Z,16.87
2018-03-29T00:59:33.566Z,15.05
2018-03-29T01:02:02.109Z,13.16
2018-03-29T01:04:30.779Z,14.31
2018-03-29T01:07:00.244Z,12.54
2018-03-29T01:09:28.911Z,12.57
2018-03-29T01:11:57.466Z,14.34
2018-03-29T01:14:26.400Z,16.93
2018-03-29T01:16:55.043Z,15.25
2018-03-29T01:19:23.772Z,13.25
2018-03-29T01:21:52.704Z,12.84
2018-03-29T01:24:22.163Z,12.95
2018-03-29T01:26:50.815Z,12.63
2018-03-29T01:29:19.536Z,13.72
2018-03-29T01:31:48.221Z,12.23
2018-03-29T01:34:16.907Z,11.87
2018-03-29T01:36:45.702Z,12.35
2018-03-29T01:39:14.278Z,12.75
2018-03-29T01:41:42.815Z,11.99
2018-03-29T01:44:12.311Z,11.45
2018-03-29T01:46:41.774Z,11.63
2018-03-29T01:49:10.316Z,11.84
2018-03-29T01:51:39.244Z,11.70
2018-03-29T01:54:07.886Z,11.51
2018-03-29T01:56:36.616Z,11.18
2018-03-29T01:59:05.597Z,10.92
2018-03-29T02:01:34.294Z,11.66
2018-03-29T02:04:02.980Z,11.55
2018-03-29T02:06:31.825Z,12.37
2018-03-29T02:09:01.176Z,15.08
2018-03-29T02:11:29.812Z,14.08
2018-03-29T02:13:58.855Z,15.01
2018-03-29T02:16:27.499Z,15.64
2018-03-29T02:18:56.227Z,14.22
2018-03-29T02:21:24.958Z,13.62
2018-03-29T02:23:54.420Z,14.23
2018-03-29T02:26:23.040Z,12.20
2018-03-29T02:28:52.510Z,12.08
2018-03-29T02:31:21.191Z,12.19
2018-03-29T02:33:49.877Z,11.67
2018-03-29T02:36:18.661Z,13.69
2018-03-29T02:38:47.248Z,13.43
2018-03-29T02:41:15.952Z,15.97
2018-03-29T02:43:44.668Z,16.67
2018-03-29T02:46:14.128Z,15.11
2018-03-29T02:48:42.752Z,14.35
2018-03-29T02:51:12.414Z,14.92
2018-03-29T02:53:41.107Z,16.06
2018-03-29T02:56:09.755Z,13.87
2018-03-29T02:58:38.678Z,14.24
2018-03-29T03:01:07.265Z,13.77
2018-03-29T03:03:35.851Z,13.81
2018-03-29T03:06:04.536Z,14.95
2018-03-29T03:08:33.223Z,14.86
2018-03-29T03:11:01.861Z,14.22
2018-03-29T03:13:31.557Z,17.52
2018-03-29T03:16:01.014Z,16.32
2018-03-29T03:18:29.700Z,16.28
2018-03-29T03:20:58.593Z,17.76
2018-03-29T03:23:27.281Z,17.04
2018-03-29T03:25:55.856Z,17.97
2018-03-29T03:28:25.017Z,18.48
2018-03-29T03:30:53.645Z,16.06
2018-03-29T03:33:22.233Z,17.27
2018-03-29T03:35:51.017Z,18.52
2018-03-29T03:38:19.703Z,17.93
2018-03-29T03:40:48.280Z,18.13
2018-03-29T03:43:17.069Z,18.96
2018-03-29T03:45:45.760Z,18.63
2018-03-29T03:48:14.406Z,20.63
2018-03-29T03:50:43.132Z,22.12
2018-03-29T03:53:11.818Z,19.96
2018-03-29T03:55:40.504Z,18.66
2018-03-29T03:58:09.477Z,18.05
2018-03-29T04:00:38.182Z,20.54
2018-03-29T04:03:06.770Z,17.33
2018-03-29T04:05:35.653Z,16.74
2018-03-29T04:08:04.339Z,18.78
2018-03-29T04:10:33.025Z,17.66
2018-03-29T04:21:12.228Z,14.65
2018-03-29T04:23:40.780Z,13.54
2018-03-29T04:26:09.392Z,14.73
2018-03-29T04:28:38.092Z,13.92
2018-03-29T04:31:11.564Z,14.20
2018-03-29T04:33:40.528Z,15.71
2018-03-29T04:36:09.080Z,16.21
2018-03-29T04:38:38.559Z,16.11
2018-03-29T04:41:07.750Z,14.65
2018-03-29T04:43:36.400Z,13.55
2018-03-29T04:46:05.122Z,13.64
2018-03-29T04:48:33.856Z,15.27
2018-03-29T04:51:03.316Z,15.46
2018-03-29T04:56:43.696Z,13.78
2018-03-29T04:59:12.382Z,12.72
2018-03-29T05:01:41.055Z,13.96
2018-03-29T05:04:09.754Z,14.27
2018-03-29T05:06:38.439Z,12.89
2018-03-29T05:09:07.164Z,12.74
2018-03-29T05:11:36.677Z,13.22
2018-03-29T05:14:06.131Z,14.14
2018-03-29T05:16:34.789Z,13.15
2018-03-29T05:19:03.810Z,12.78
2018-03-29T05:21:32.498Z,13.83
2018-03-29T05:24:01.192Z,13.94
2018-03-29T05:26:35.397Z,13.15
2018-03-29T05:29:04.086Z,12.75
2018-03-29T05:31:32.768Z,12.28
2018-03-29T05:34:01.564Z,12.81
2018-03-29T05:36:30.202Z,12.61
2018-03-29T05:38:58.936Z,13.44
2018-03-29T05:41:27.820Z,12.89
2018-03-29T05:43:56.512Z,13.27
2018-03-29T05:46:25.192Z,16.08
2018-03-29T05:48:53.891Z,14.86
2018-03-29T05:51:22.460Z,13.13
2018-03-29T05:53:51.012Z,15.22
2018-03-29T05:56:19.897Z,15.22
2018-03-29T05:58:48.632Z,15.61
2018-03-29T06:01:17.822Z,14.43
2018-03-29T06:03:46.451Z,13.57
2018-03-29T06:06:15.907Z,13.92
2018-03-29T06:08:44.635Z,13.51
2018-03-29T06:11:14.055Z,13.41
2018-03-29T06:13:43.545Z,12.65
2018-03-29T06:16:21.404Z,13.35
2018-03-29T06:18:50.034Z,14.13
2018-03-29T06:21:19.447Z,15.06
2018-03-29T06:23:48.900Z,13.77
2018-03-29T06:26:17.584Z,12.76
2018-03-29T06:28:46.270Z,12.15
2018-03-29T06:31:15.222Z,12.32
2018-03-29T06:33:43.948Z,12.44
2018-03-29T06:36:12.529Z,12.08
2018-03-29T06:38:41.452Z,13.10
2018-03-29T06:41:10.165Z,13.86
2018-03-29T06:43:39.614Z,11.86
2018-03-29T06:46:08.402Z,11.68
2018-03-29T06:48:37.083Z,12.68
2018-03-29T06:51:05.670Z,12.08
2018-03-29T06:53:34.357Z,12.30
2018-03-29T06:56:03.043Z,11.31
2018-03-29T06:58:31.674Z,10.34
2018-03-29T07:01:01.499Z,10.42
2018-03-29T07:03:30.944Z,11.39
2018-03-29T07:05:59.631Z,11.74
2018-03-29T07:08:28.568Z,11.23
2018-03-29T07:10:57.984Z,10.58
2018-03-29T07:13:26.714Z,10.82
2018-03-29T07:15:55.588Z,10.10
2018-03-29T07:18:24.288Z,9.25
2018-03-29T07:20:52.930Z,11.55
2018-03-29T07:23:22.024Z,10.56
2018-03-29T07:25:50.730Z,9.88
2018-03-29T07:28:19.416Z,8.59
2018-03-29T07:30:48.000Z,9.14
2018-03-29T07:33:16.680Z,7.72
2018-03-29T07:35:45.313Z,8.58
2018-03-29T07:38:14.971Z,9.95
2018-03-29T07:40:43.601Z,9.63
2018-03-29T07:43:13.070Z,10.17
2018-03-29T07:45:42.635Z,10.95
2018-03-29T07:48:11.276Z,10.53
2018-03-29T07:50:40.728Z,8.54
2018-03-29T07:53:09.792Z,8.84
2018-03-29T07:55:38.408Z,10.55
2018-03-29T07:58:06.994Z,8.51
2018-03-29T08:00:35.719Z,9.17
2018-03-29T08:03:05.183Z,8.75
2018-03-29T08:05:33.832Z,9.30
2018-03-29T08:08:02.594Z,8.53
2018-03-29T08:10:32.058Z,8.87
2018-03-29T08:13:01.508Z,8.14
2018-03-29T08:15:31.251Z,8.42
2018-03-29T08:17:59.958Z,9.80
2018-03-29T08:20:28.645Z,9.44
2018-03-29T08:22:58.152Z,9.06
2018-03-29T08:25:26.771Z,7.82
2018-03-29T08:27:56.239Z,8.93
2018-03-29T08:30:24.987Z,8.85
2018-03-29T08:32:53.708Z,8.71
2018-03-29T08:35:22.743Z,9.23
2018-03-29T08:37:52.308Z,9.33
2018-03-29T08:40:20.994Z,8.77
2018-03-29T08:42:49.635Z,7.86
2018-03-29T08:45:18.440Z,7.26
2018-03-29T08:47:47.162Z,8.28
2018-03-29T08:50:15.708Z,9.38
2018-03-29T08:52:44.373Z,8.77
2018-03-29T08:55:13.890Z,8.86
2018-03-29T08:57:42.618Z,8.86
2018-03-29T09:00:11.612Z,10.12
2018-03-29T09:02:40.297Z,8.82
2018-03-29T09:05:08.962Z,7.82
2018-03-29T09:07:38.056Z,8.05
2018-03-29T09:10:06.763Z,7.57
2018-03-29T09:12:35.391Z,7.96
2018-03-29T09:15:05.053Z,6.85
2018-03-29T09:17:33.596Z,8.93
2018-03-29T09:20:02.327Z,7.75
2018-03-29T09:22:31.120Z,6.05
2018-03-29T09:24:59.757Z,6.93
2018-03-29T09:27:28.483Z,7.69
2018-03-29T09:29:57.278Z,6.88
2018-03-29T09:32:25.964Z,6.64
2018-03-29T09:34:54.602Z,6.00
2018-03-29T09:37:23.338Z,8.11
2018-03-29T09:39:52.023Z,7.92
2018-03-29T09:42:20.708Z,6.82
2018-03-29T09:44:49.552Z,6.39
2018-03-29T09:47:18.100Z,6.02
2018-03-29T09:49:48.301Z,6.16
2018-03-29T09:52:17.091Z,6.66
2018-03-29T09:54:45.749Z,8.23
2018-03-29T09:57:14.458Z,6.79
2018-03-29T09:59:43.385Z,7.21
2018-03-29T10:02:18.379Z,7.08
2018-03-29T10:04:52.595Z,7.05
2018-03-29T10:07:25.088Z,8.57
2018-03-29T10:09:53.961Z,7.56
2018-03-29T10:12:22.658Z,6.25
2018-03-29T10:14:51.331Z,7.72
2018-03-29T10:17:20.984Z,8.19
2018-03-29T10:19:50.353Z,7.75
2018-03-29T10:22:18.895Z,6.97
2018-03-29T10:24:47.918Z,8.60
2018-03-29T10:27:16.603Z,6.62
2018-03-29T10:29:45.251Z,6.69
2018-03-29T10:32:13.976Z,5.90
2018-03-29T10:34:42.662Z,6.86
2018-03-29T10:37:11.305Z,6.28
2018-03-29T10:39:40.242Z,7.12
2018-03-29T10:42:08.891Z,6.69
2018-03-29T10:44:37.614Z,7.72
2018-03-29T10:47:06.577Z,6.91
2018-03-29T10:49:35.292Z,6.13
2018-03-29T10:52:03.984Z,6.14
2018-03-29T10:54:32.758Z,5.88
2018-03-29T10:57:01.449Z,5.50
2018-03-29T10:59:30.092Z,4.71
2018-03-29T11:01:59.094Z,7.53
2018-03-29T11:07:07.063Z,5.45
2018-03-29T11:09:35.744Z,4.88
2018-03-29T11:12:04.512Z,4.94
2018-03-29T11:14:33.486Z,4.68
2018-03-29T11:17:03.224Z,5.30
2018-03-29T11:19:31.909Z,4.77
2018-03-29T11:22:01.112Z,5.50
2018-03-29T11:24:29.797Z,5.32
2018-03-29T11:26:58.421Z,5.93
2018-03-29T11:29:27.513Z,6.36
2018-03-29T11:31:56.229Z,4.99
2018-03-29T11:34:24.814Z,5.34
2018-03-29T11:36:53.544Z,5.31
2018-03-29T11:39:22.999Z,4.37
2018-03-29T11:41:51.630Z,3.75
2018-03-29T11:44:21.195Z,4.19
2018-03-29T11:46:49.879Z,4.35
2018-03-29T11:49:18.564Z,4.13
2018-03-29T11:51:47.657Z,3.29
2018-03-29T11:54:16.342Z,5.13
2018-03-29T11:56:44.989Z,3.89
2018-03-29T11:59:13.714Z,5.63
2018-03-29T12:01:42.265Z,6.32
2018-03-29T12:04:10.986Z,3.73
2018-03-29T12:06:39.672Z,3.30
2018-03-29T12:09:08.457Z,5.08
2018-03-29T12:11:37.123Z,4.26
2018-03-29T12:14:06.116Z,4.82
2018-03-29T12:16:34.822Z,4.22
2018-03-29T12:19:03.454Z,4.85
2018-03-29T12:21:33.017Z,6.02
2018-03-29T12:24:02.482Z,5.54
2018-03-29T12:26:31.132Z,4.90
2018-03-29T12:29:00.061Z,4.75
2018-03-29T12:31:29.532Z,3.74
2018-03-29T12:33:58.108Z,4.95
2018-03-29T12:36:26.851Z,4.13
2018-03-29T12:38:56.472Z,3.81
2018-03-29T12:41:25.163Z,4.31
2018-03-29T12:43:54.048Z,4.91
2018-03-29T12:46:23.824Z,6.36
2018-03-29T12:48:52.471Z,4.50
2018-03-29T12:51:21.386Z,3.95
2018-03-29T12:53:49.949Z,3.54
2018-03-29T12:59:18.421Z,5.62
2018-03-29T13:01:47.145Z,5.98
2018-03-29T13:04:15.833Z,5.01
2018-03-29T13:06:44.551Z,6.09
2018-03-29T13:09:13.294Z,6.02
2018-03-29T13:11:41.902Z,5.84
2018-03-29T13:14:11.333Z,5.51
2018-03-29T13:16:40.132Z,6.73
2018-03-29T13:19:08.816Z,3.55
2018-03-29T13:21:37.459Z,4.61
2018-03-29T13:24:06.199Z,3.87
2018-03-29T13:26:34.982Z,3.64
2018-03-29T13:29:04.442Z,5.30
2018-03-29T13:31:33.908Z,6.22
2018-03-29T13:34:02.605Z,6.33
2018-03-29T13:36:31.291Z,3.66
2018-03-29T13:38:59.967Z,3.65
2018-03-29T13:41:28.661Z,3.85
2018-03-29T13:43:57.346Z,2.51
2018-03-29T13:46:26.193Z,4.18
2018-03-29T13:48:54.816Z,3.52
2018-03-29T13:51:23.303Z,6.23
2018-03-29T13:53:51.863Z,3.93
2018-03-29T13:56:20.568Z,3.89
2018-03-29T13:58:49.257Z,4.41
2018-03-29T14:01:17.938Z,4.66
2018-03-29T14:03:46.735Z,4.19
2018-03-29T14:06:15.407Z,2.97
2018-03-29T14:08:44.382Z,3.18
2018-03-29T14:11:12.975Z,4.86
2018-03-29T14:13:41.675Z,3.46
2018-03-29T14:16:10.459Z,2.47
2018-03-29T14:18:39.152Z,2.59
2018-03-29T14:21:07.798Z,3.14
2018-03-29T14:23:39.586Z,3.49
2018-03-29T14:26:16.671Z,4.29
2018-03-29T14:28:48.327Z,5.29
2018-03-29T14:31:17.013Z,5.31
2018-03-29T14:33:45.663Z,7.25
2018-03-29T14:36:14.428Z,5.45
2018-03-29T14:38:43.180Z,5.04
2018-03-29T14:41:11.814Z,6.05
2018-03-29T14:43:40.735Z,6.10
2018-03-29T14:46:09.436Z,6.48
2018-03-29T14:48:38.123Z,5.96
2018-03-29T14:51:07.009Z,6.92
2018-03-29T14:53:35.718Z,7.26
2018-03-29T14:56:04.305Z,6.07
2018-03-29T14:58:33.094Z,6.29
2018-03-29T15:01:01.795Z,6.61
2018-03-29T15:03:32.920Z,6.16
2018-03-29T15:06:01.611Z,5.55
2018-03-29T15:08:32.790Z,5.64
2018-03-29T15:11:02.167Z,5.43
2018-03-29T15:13:31.604Z,5.65
2018-03-29T15:16:01.165Z,7.31
2018-03-29T15:18:29.814Z,6.50
2018-03-29T15:20:58.536Z,6.95
2018-03-29T15:23:27.420Z,7.25
2018-03-29T15:25:56.116Z,6.63
2018-03-29T15:28:24.734Z,7.44
2018-03-29T15:31:00.137Z,7.20
2018-03-29T15:33:28.823Z,7.32
2018-03-29T15:35:57.371Z,6.97
2018-03-29T15:38:26.101Z,8.04
2018-03-29T15:40:54.646Z,7.57
2018-03-29T15:43:23.318Z,7.52
2018-03-29T15:46:20.893Z,7.26
2018-03-29T15:48:49.620Z,7.45
2018-03-29T15:51:18.313Z,7.00
2018-03-29T15:53:46.947Z,6.85
2018-03-29T15:56:15.513Z,6.17
2018-03-29T15:58:44.822Z,5.64
2018-03-29T16:01:14.481Z,5.53
2018-03-29T16:03:43.042Z,5.50
2018-03-29T16:06:11.599Z,5.44
2018-03-29T16:08:41.355Z,5.10
2018-03-29T16:11:09.996Z,5.47
2018-03-29T16:13:39.304Z,6.33
2018-03-29T16:16:08.178Z,6.61
2018-03-29T16:18:37.522Z,7.35
2018-03-29T16:21:06.112Z,7.83
2018-03-29T16:23:36.242Z,7.88
2018-03-29T16:26:04.929Z,8.06
2018-03-29T16:28:33.490Z,8.65
2018-03-29T16:31:05.217Z,8.56
2018-03-29T16:33:34.149Z,8.57
2018-03-29T16:36:10.923Z,8.47
2018-03-29T16:38:39.565Z,7.42
2018-03-29T16:41:09.017Z,7.64
2018-03-29T16:43:37.802Z,8.02
2018-03-29T16:46:07.223Z,8.31
2018-03-29T16:48:37.500Z,7.53
2018-03-29T16:51:06.280Z,7.18
2018-03-29T16:53:34.982Z,7.13
2018-03-29T16:56:03.557Z,7.90
2018-03-29T16:58:32.354Z,8.23
2018-03-29T17:01:01.003Z,8.39
2018-03-29T17:03:29.728Z,9.27
2018-03-29T17:05:58.914Z,8.56
2018-03-29T17:08:27.559Z,8.14
2018-03-29T17:10:56.287Z,8.02
2018-03-29T17:13:24.997Z,8.40
2018-03-29T17:15:56.670Z,8.92
2018-03-29T17:18:25.447Z,8.39
2018-03-29T17:20:54.229Z,8.25
2018-03-29T17:23:22.817Z,8.08
2018-03-29T17:25:51.586Z,8.19
2018-03-29T17:28:20.287Z,8.30
2018-03-29T17:30:48.866Z,8.51
2018-03-29T17:33:17.816Z,8.91
2018-03-29T17:35:46.552Z,8.87
2018-03-29T17:38:15.101Z,9.15
2018-03-29T17:40:43.735Z,8.86
2018-03-29T17:43:12.400Z,9.45
2018-03-29T17:45:51.224Z,9.58
2018-03-29T17:48:26.455Z,9.50
2018-03-29T17:50:57.714Z,9.43
2018-03-29T17:53:26.498Z,9.74
2018-03-29T17:55:55.049Z,9.64
2018-03-29T17:58:24.594Z,9.80
2018-03-29T18:00:53.295Z,9.67
2018-03-29T18:03:21.981Z,9.70
2018-03-29T18:05:50.775Z,10.04
2018-03-29T18:08:19.414Z,9.50
2018-03-29T18:10:48.146Z,9.46
2018-03-29T18:13:17.030Z,9.47
2018-03-29T18:15:46.345Z,9.13
2018-03-29T18:18:14.905Z,9.03
2018-03-29T18:20:43.944Z,9.21
2018-03-29T18:23:12.810Z,9.54
2018-03-29T18:25:41.357Z,9.05
2018-03-29T18:28:10.164Z,8.96
2018-03-29T18:30:39.730Z,8.97
2018-03-29T18:33:08.292Z,8.50
2018-03-29T18:35:37.667Z,9.19
2018-03-29T18:38:06.349Z,12.02
2018-03-29T18:40:35.034Z,10.56
2018-03-29T18:43:03.867Z,9.71
2018-03-29T18:45:32.562Z,9.69
2018-03-29T18:48:01.978Z,9.57
2018-03-29T18:50:30.745Z,9.28
2018-03-29T18:53:00.061Z,9.01
2018-03-29T18:55:28.607Z,8.64
2018-03-29T18:57:58.345Z,8.75
2018-03-29T19:00:26.970Z,8.57
2018-03-29T19:02:55.653Z,8.88
2018-03-29T19:05:24.425Z,8.53
2018-03-29T19:07:52.970Z,8.46
2018-03-29T19:10:21.677Z,8.46
2018-03-29T19:12:51.252Z,8.66
2018-03-29T19:15:21.671Z,8.78
2018-03-29T19:17:50.575Z,8.24
2018-03-29T19:20:19.134Z,8.46
2018-03-29T19:22:47.888Z,8.65
2018-03-29T19:25:16.798Z,8.99
2018-03-29T19:27:45.366Z,9.40
2018-03-29T19:30:13.941Z,8.68
2018-03-29T19:32:43.669Z,9.17
2018-03-29T19:35:12.231Z,9.05
2018-03-29T19:37:41.357Z,9.07
2018-03-29T19:40:10.770Z,8.83
2018-03-29T19:42:39.337Z,9.11
2018-03-29T19:45:08.648Z,9.83
2018-03-29T19:47:37.336Z,9.38
2018-03-29T19:50:05.888Z,9.53
2018-03-29T19:52:35.204Z,9.16
2018-03-29T19:55:03.930Z,9.24
2018-03-29T19:57:32.473Z,9.38
2018-03-29T20:00:01.034Z,8.92
2018-03-29T20:02:30.445Z,8.66
2018-03-29T20:04:59.023Z,8.96
2018-03-29T20:07:27.608Z,9.37
2018-03-29T20:09:57.114Z,9.51
2018-03-29T20:12:26.430Z,8.98
2018-03-29T20:14:54.977Z,8.75
2018-03-29T20:17:24.552Z,8.95
2018-03-29T20:19:53.246Z,8.73
2018-03-29T20:22:22.029Z,9.07
2018-03-29T20:24:51.120Z,9.32
2018-03-29T20:27:19.777Z,9.20
2018-03-29T20:29:48.492Z,8.77
2018-03-29T20:32:17.793Z,9.46
2018-03-29T20:34:46.478Z,9.19
2018-03-29T20:37:15.171Z,8.97
2018-03-29T20:39:43.852Z,9.35
2018-03-29T20:42:12.581Z,8.83
2018-03-29T20:44:42.045Z,9.22
2018-03-29T20:47:10.822Z,8.84
2018-03-29T20:49:39.514Z,8.65
2018-03-29T20:52:08.159Z,8.83
2018-03-29T20:54:37.149Z,9.71
2018-03-29T20:57:05.878Z,9.29
2018-03-29T20:59:34.536Z,9.13
2018-03-29T21:02:03.352Z,8.83
2018-03-29T21:04:32.097Z,8.52
2018-03-29T21:07:00.732Z,9.65
2018-03-29T21:09:29.516Z,9.19
2018-03-29T21:11:58.202Z,9.09
2018-03-29T21:14:26.890Z,10.05
2018-03-29T21:16:56.594Z,10.13
2018-03-29T21:19:25.280Z,9.58
2018-03-29T21:21:53.923Z,9.63
2018-03-29T21:24:22.651Z,9.32
2018-03-29T21:26:51.338Z,10.34
2018-03-29T21:29:20.026Z,9.79
2018-03-29T21:31:49.225Z,9.57
2018-03-29T21:34:17.983Z,9.36
2018-03-29T21:36:47.309Z,9.90
2018-03-29T21:39:16.257Z,9.78
2018-03-29T21:41:45.096Z,9.22
2018-03-29T21:44:13.731Z,9.63
2018-03-29T21:46:43.452Z,9.83
2018-03-29T21:49:12.178Z,9.54
2018-03-29T21:51:40.988Z,9.60
2018-03-29T21:54:10.730Z,9.46
2018-03-29T21:56:39.461Z,9.46
2018-03-29T21:59:08.036Z,9.74
2018-03-29T22:01:36.931Z,10.46
2018-03-29T22:04:05.518Z,11.69
2018-03-29T22:06:34.205Z,12.01
2018-03-29T22:09:02.949Z,14.08
2018-03-29T22:11:31.674Z,13.23
2018-03-29T22:14:00.261Z,11.39
2018-03-29T22:16:29.040Z,11.60
2018-03-29T22:18:57.687Z,13.27
2018-03-29T22:21:26.416Z,12.31
2018-03-29T22:23:55.105Z,10.87
2018-03-29T22:26:23.901Z,10.51
2018-03-29T22:28:53.397Z,10.23
2018-03-29T22:31:22.951Z,10.26
2018-03-29T22:33:52.412Z,12.48
2018-03-29T22:36:21.097Z,13.53
2018-03-29T22:38:49.830Z,11.96
2018-03-29T22:41:19.282Z,11.82
2018-03-29T22:43:47.969Z,11.95
2018-03-29T22:46:16.755Z,11.47
2018-03-29T22:48:45.449Z,11.42
2018-03-29T22:51:14.145Z,11.11
2018-03-29T22:53:42.913Z,11.16
2018-03-29T22:56:11.606Z,11.05
2018-03-29T22:58:40.249Z,11.01
2018-03-29T23:01:08.977Z,11.04
2018-03-29T23:03:37.609Z,11.96
2018-03-29T23:06:07.067Z,13.58
2018-03-29T23:08:35.856Z,11.95
2018-03-29T23:11:04.537Z,12.17
2018-03-29T23:13:33.228Z,11.42
2018-03-29T23:16:02.113Z,11.14
2018-03-29T23:18:30.796Z,11.04
2018-03-29T23:20:59.483Z,10.86
2018-03-29T23:23:28.225Z,12.43
2018-03-29T23:25:57.678Z,13.19
2018-03-29T23:28:26.265Z,12.16
2018-03-29T23:30:55.409Z,11.25
2018-03-29T23:33:24.141Z,11.15
2018-03-29T23:35:52.793Z,11.47
2018-03-29T23:38:21.791Z,11.02
2018-03-29T23:40:50.505Z,11.26
2018-03-29T23:43:19.192Z,11.16
2018-03-29T23:45:47.986Z,11.03
2018-03-29T23:48:16.671Z,11.02
2018-03-29T23:50:45.501Z,11.11
2018-03-29T23:53:14.966Z,11.33
2018-03-29T23:55:43.560Z,11.05
2018-03-29T23:58:18.273Z,11.13
